sensor_id;sensor_type;location;lat;lon;timestamp;temperature;humidity
13707;DHT22;6925;47.816;13.072;2023-01-20T00:01:09;0.20;71.00
13707;DHT22;6925;47.816;13.072;2023-01-20T00:03:37;0.20;70.90
13707;DHT22;6925;47.816;13.072;2023-01-20T00:06:04;0.20;70.30
13707;DHT22;6925;47.816;13.072;2023-01-20T00:08:32;0.20;70.70
13707;DHT22;6925;47.816;13.072;2023-01-20T00:11:03;0.20;70.60
13707;DHT22;6925;47.816;13.072;2023-01-20T00:13:33;0.20;70.70
13707;DHT22;6925;47.816;13.072;2023-01-20T00:16:02;0.20;70.50
13707;DHT22;6925;47.816;13.072;2023-01-20T00:18:29;0.10;70.60
13707;DHT22;6925;47.816;13.072;2023-01-20T00:21:01;0.10;70.80
13707;DHT22;6925;47.816;13.072;2023-01-20T00:23:29;0.10;70.90
13707;DHT22;6925;47.816;13.072;2023-01-20T00:25:57;0.10;70.70
13707;DHT22;6925;47.816;13.072;2023-01-20T00:28:24;0.20;70.70
13707;DHT22;6925;47.816;13.072;2023-01-20T00:30:53;0.20;70.70
13707;DHT22;6925;47.816;13.072;2023-01-20T00:33:20;0.20;70.80
13707;DHT22;6925;47.816;13.072;2023-01-20T00:35:47;0.20;70.70
13707;DHT22;6925;47.816;13.072;2023-01-20T00:38:14;0.10;70.00
13707;DHT22;6925;47.816;13.072;2023-01-20T00:40:42;0.10;70.70
13707;DHT22;6925;47.816;13.072;2023-01-20T00:43:10;0.10;70.40
13707;DHT22;6925;47.816;13.072;2023-01-20T00:45:37;0.10;70.60
13707;DHT22;6925;47.816;13.072;2023-01-20T00:48:10;0.00;70.40
13707;DHT22;6925;47.816;13.072;2023-01-20T00:50:37;0.00;70.70
13707;DHT22;6925;47.816;13.072;2023-01-20T00:53:04;0.10;70.80
13707;DHT22;6925;47.816;13.072;2023-01-20T00:55:32;0.10;70.40
13707;DHT22;6925;47.816;13.072;2023-01-20T00:57:59;0.00;70.20
13707;DHT22;6925;47.816;13.072;2023-01-20T01:00:40;0.00;70.40
13707;DHT22;6925;47.816;13.072;2023-01-20T01:03:08;-0.10;70.40
13707;DHT22;6925;47.816;13.072;2023-01-20T01:05:37;0.00;70.70
13707;DHT22;6925;47.816;13.072;2023-01-20T01:08:04;0.00;70.70
13707;DHT22;6925;47.816;13.072;2023-01-20T01:10:32;0.00;70.80
13707;DHT22;6925;47.816;13.072;2023-01-20T01:12:59;0.00;70.80
13707;DHT22;6925;47.816;13.072;2023-01-20T01:15:27;-0.10;70.70
13707;DHT22;6925;47.816;13.072;2023-01-20T01:17:56;0.00;71.30
13707;DHT22;6925;47.816;13.072;2023-01-20T01:20:24;0.00;70.90
13707;DHT22;6925;47.816;13.072;2023-01-20T01:22:53;0.00;71.60
13707;DHT22;6925;47.816;13.072;2023-01-20T01:25:20;0.00;71.10
13707;DHT22;6925;47.816;13.072;2023-01-20T01:27:48;0.10;70.90
13707;DHT22;6925;47.816;13.072;2023-01-20T01:30:16;0.00;70.50
13707;DHT22;6925;47.816;13.072;2023-01-20T01:32:43;0.00;71.00
13707;DHT22;6925;47.816;13.072;2023-01-20T01:35:10;0.00;71.00
13707;DHT22;6925;47.816;13.072;2023-01-20T01:37:37;0.00;71.30
13707;DHT22;6925;47.816;13.072;2023-01-20T01:40:08;0.10;71.30
13707;DHT22;6925;47.816;13.072;2023-01-20T01:42:36;0.10;71.20
13707;DHT22;6925;47.816;13.072;2023-01-20T01:45:26;0.10;70.70
13707;DHT22;6925;47.816;13.072;2023-01-20T01:48:01;0.00;70.80
13707;DHT22;6925;47.816;13.072;2023-01-20T01:50:35;0.00;71.00
13707;DHT22;6925;47.816;13.072;2023-01-20T01:53:02;-0.10;70.60
13707;DHT22;6925;47.816;13.072;2023-01-20T01:55:32;-0.10;71.20
13707;DHT22;6925;47.816;13.072;2023-01-20T01:58:01;-0.10;71.50
13707;DHT22;6925;47.816;13.072;2023-01-20T02:00:30;0.00;71.50
13707;DHT22;6925;47.816;13.072;2023-01-20T02:02:57;0.00;71.60
13707;DHT22;6925;47.816;13.072;2023-01-20T02:05:27;0.10;72.00
13707;DHT22;6925;47.816;13.072;2023-01-20T02:07:56;0.10;71.50
13707;DHT22;6925;47.816;13.072;2023-01-20T02:10:24;0.10;71.20
13707;DHT22;6925;47.816;13.072;2023-01-20T02:12:53;0.10;71.00
13707;DHT22;6925;47.816;13.072;2023-01-20T02:15:25;0.00;70.90
13707;DHT22;6925;47.816;13.072;2023-01-20T02:18:14;-0.10;71.30
13707;DHT22;6925;47.816;13.072;2023-01-20T02:21:11;0.00;72.00
13707;DHT22;6925;47.816;13.072;2023-01-20T02:24:03;0.10;72.20
13707;DHT22;6925;47.816;13.072;2023-01-20T02:27:01;0.30;71.80
13707;DHT22;6925;47.816;13.072;2023-01-20T02:32:56;0.30;71.50
13707;DHT22;6925;47.816;13.072;2023-01-20T02:35:28;0.40;71.70
13707;DHT22;6925;47.816;13.072;2023-01-20T02:38:09;0.40;71.70
13707;DHT22;6925;47.816;13.072;2023-01-20T02:40:48;0.50;71.80
13707;DHT22;6925;47.816;13.072;2023-01-20T02:43:19;0.60;71.60
13707;DHT22;6925;47.816;13.072;2023-01-20T02:45:56;0.60;71.70
13707;DHT22;6925;47.816;13.072;2023-01-20T02:48:29;0.70;71.60
13707;DHT22;6925;47.816;13.072;2023-01-20T02:51:02;0.60;71.10
13707;DHT22;6925;47.816;13.072;2023-01-20T02:53:36;0.70;71.60
13707;DHT22;6925;47.816;13.072;2023-01-20T02:56:07;0.70;71.60
13707;DHT22;6925;47.816;13.072;2023-01-20T02:58:40;0.70;71.20
13707;DHT22;6925;47.816;13.072;2023-01-20T03:01:11;0.70;71.50
13707;DHT22;6925;47.816;13.072;2023-01-20T03:03:44;0.70;71.60
13707;DHT22;6925;47.816;13.072;2023-01-20T03:06:16;0.80;71.80
13707;DHT22;6925;47.816;13.072;2023-01-20T03:08:45;0.80;71.60
13707;DHT22;6925;47.816;13.072;2023-01-20T03:11:16;0.80;71.50
13707;DHT22;6925;47.816;13.072;2023-01-20T03:13:49;0.80;71.70
13707;DHT22;6925;47.816;13.072;2023-01-20T03:16:20;0.80;71.70
13707;DHT22;6925;47.816;13.072;2023-01-20T03:18:53;0.80;71.70
13707;DHT22;6925;47.816;13.072;2023-01-20T03:21:21;0.80;71.70
13707;DHT22;6925;47.816;13.072;2023-01-20T03:23:49;0.80;71.70
13707;DHT22;6925;47.816;13.072;2023-01-20T03:26:19;0.80;71.50
13707;DHT22;6925;47.816;13.072;2023-01-20T03:28:47;0.80;71.60
13707;DHT22;6925;47.816;13.072;2023-01-20T03:31:16;0.70;71.40
13707;DHT22;6925;47.816;13.072;2023-01-20T03:33:44;0.70;72.00
13707;DHT22;6925;47.816;13.072;2023-01-20T03:36:15;0.70;72.40
13707;DHT22;6925;47.816;13.072;2023-01-20T03:38:45;0.80;72.30
13707;DHT22;6925;47.816;13.072;2023-01-20T03:41:18;0.80;72.70
13707;DHT22;6925;47.816;13.072;2023-01-20T03:43:54;0.80;72.70
13707;DHT22;6925;47.816;13.072;2023-01-20T03:46:29;0.80;73.00
13707;DHT22;6925;47.816;13.072;2023-01-20T03:49:05;0.80;73.30
13707;DHT22;6925;47.816;13.072;2023-01-20T03:51:44;0.70;73.60
13707;DHT22;6925;47.816;13.072;2023-01-20T03:54:17;0.70;73.90
13707;DHT22;6925;47.816;13.072;2023-01-20T03:56:52;0.70;73.80
13707;DHT22;6925;47.816;13.072;2023-01-20T03:59:21;0.60;74.30
13707;DHT22;6925;47.816;13.072;2023-01-20T04:01:50;0.60;74.60
13707;DHT22;6925;47.816;13.072;2023-01-20T04:04:19;0.50;74.60
13707;DHT22;6925;47.816;13.072;2023-01-20T04:06:49;0.40;75.10
13707;DHT22;6925;47.816;13.072;2023-01-20T04:09:20;0.40;75.90
13707;DHT22;6925;47.816;13.072;2023-01-20T04:11:49;0.40;76.30
13707;DHT22;6925;47.816;13.072;2023-01-20T04:14:16;0.40;75.90
13707;DHT22;6925;47.816;13.072;2023-01-20T04:16:50;0.30;76.00
13707;DHT22;6925;47.816;13.072;2023-01-20T04:19:18;0.20;76.60
13707;DHT22;6925;47.816;13.072;2023-01-20T04:21:50;0.20;77.00
13707;DHT22;6925;47.816;13.072;2023-01-20T04:24:23;0.20;76.70
13707;DHT22;6925;47.816;13.072;2023-01-20T04:26:52;0.30;76.90
13707;DHT22;6925;47.816;13.072;2023-01-20T04:29:19;0.40;77.70
13707;DHT22;6925;47.816;13.072;2023-01-20T04:31:46;0.40;77.50
13707;DHT22;6925;47.816;13.072;2023-01-20T04:34:14;0.50;77.70
13707;DHT22;6925;47.816;13.072;2023-01-20T04:36:42;0.60;77.40
13707;DHT22;6925;47.816;13.072;2023-01-20T04:39:10;0.70;77.20
13707;DHT22;6925;47.816;13.072;2023-01-20T04:41:40;0.70;77.20
13707;DHT22;6925;47.816;13.072;2023-01-20T04:44:08;0.60;77.50
13707;DHT22;6925;47.816;13.072;2023-01-20T04:46:35;0.70;77.60
13707;DHT22;6925;47.816;13.072;2023-01-20T04:49:02;0.70;77.30
13707;DHT22;6925;47.816;13.072;2023-01-20T04:51:31;0.80;77.70
13707;DHT22;6925;47.816;13.072;2023-01-20T04:53:58;0.80;77.20
13707;DHT22;6925;47.816;13.072;2023-01-20T04:56:27;0.70;77.20
13707;DHT22;6925;47.816;13.072;2023-01-20T04:58:54;0.60;77.40
13707;DHT22;6925;47.816;13.072;2023-01-20T05:01:21;0.70;77.80
13707;DHT22;6925;47.816;13.072;2023-01-20T05:03:52;0.60;77.90
13707;DHT22;6925;47.816;13.072;2023-01-20T05:06:19;0.60;77.90
13707;DHT22;6925;47.816;13.072;2023-01-20T05:08:46;0.60;78.10
13707;DHT22;6925;47.816;13.072;2023-01-20T05:11:13;0.60;78.40
13707;DHT22;6925;47.816;13.072;2023-01-20T05:13:42;0.60;78.60
13707;DHT22;6925;47.816;13.072;2023-01-20T05:16:09;0.60;78.80
13707;DHT22;6925;47.816;13.072;2023-01-20T05:18:37;0.50;78.60
13707;DHT22;6925;47.816;13.072;2023-01-20T05:21:07;0.40;78.80
13707;DHT22;6925;47.816;13.072;2023-01-20T05:23:37;0.40;79.00
13707;DHT22;6925;47.816;13.072;2023-01-20T05:26:04;0.40;80.00
13707;DHT22;6925;47.816;13.072;2023-01-20T05:28:32;0.40;80.00
13707;DHT22;6925;47.816;13.072;2023-01-20T05:31:01;0.40;79.90
13707;DHT22;6925;47.816;13.072;2023-01-20T05:33:28;0.50;79.70
13707;DHT22;6925;47.816;13.072;2023-01-20T05:35:56;0.50;79.50
13707;DHT22;6925;47.816;13.072;2023-01-20T05:38:23;0.60;79.40
13707;DHT22;6925;47.816;13.072;2023-01-20T05:40:58;0.60;79.40
13707;DHT22;6925;47.816;13.072;2023-01-20T05:43:25;0.70;80.00
13707;DHT22;6925;47.816;13.072;2023-01-20T05:45:53;0.70;80.00
13707;DHT22;6925;47.816;13.072;2023-01-20T05:48:22;0.60;79.90
13707;DHT22;6925;47.816;13.072;2023-01-20T05:50:49;0.70;80.00
13707;DHT22;6925;47.816;13.072;2023-01-20T05:53:17;0.60;80.80
13707;DHT22;6925;47.816;13.072;2023-01-20T05:55:44;0.60;80.50
13707;DHT22;6925;47.816;13.072;2023-01-20T05:58:12;0.60;80.10
13707;DHT22;6925;47.816;13.072;2023-01-20T06:00:39;0.40;80.60
13707;DHT22;6925;47.816;13.072;2023-01-20T06:03:06;0.30;81.10
13707;DHT22;6925;47.816;13.072;2023-01-20T06:05:35;0.20;81.50
13707;DHT22;6925;47.816;13.072;2023-01-20T06:08:03;0.20;81.90
13707;DHT22;6925;47.816;13.072;2023-01-20T06:10:30;0.20;82.50
13707;DHT22;6925;47.816;13.072;2023-01-20T06:12:57;0.20;82.50
13707;DHT22;6925;47.816;13.072;2023-01-20T06:15:25;0.40;82.50
13707;DHT22;6925;47.816;13.072;2023-01-20T06:17:55;0.50;82.30
13707;DHT22;6925;47.816;13.072;2023-01-20T06:20:22;0.60;82.40
13707;DHT22;6925;47.816;13.072;2023-01-20T06:22:55;0.70;82.30
13707;DHT22;6925;47.816;13.072;2023-01-20T06:25:22;0.60;81.60
13707;DHT22;6925;47.816;13.072;2023-01-20T06:27:49;0.50;81.90
13707;DHT22;6925;47.816;13.072;2023-01-20T06:30:17;0.30;82.50
13707;DHT22;6925;47.816;13.072;2023-01-20T06:32:45;0.30;82.90
13707;DHT22;6925;47.816;13.072;2023-01-20T06:35:14;0.50;83.40
13707;DHT22;6925;47.816;13.072;2023-01-20T06:37:41;0.60;83.00
13707;DHT22;6925;47.816;13.072;2023-01-20T06:40:11;0.70;82.30
13707;DHT22;6925;47.816;13.072;2023-01-20T06:42:39;0.70;82.00
13707;DHT22;6925;47.816;13.072;2023-01-20T06:45:08;0.80;82.30
13707;DHT22;6925;47.816;13.072;2023-01-20T06:47:35;0.80;82.30
13707;DHT22;6925;47.816;13.072;2023-01-20T06:50:03;0.90;82.00
13707;DHT22;6925;47.816;13.072;2023-01-20T06:52:30;0.90;82.10
13707;DHT22;6925;47.816;13.072;2023-01-20T06:54:57;1.00;82.00
13707;DHT22;6925;47.816;13.072;2023-01-20T06:57:26;1.00;81.30
13707;DHT22;6925;47.816;13.072;2023-01-20T06:59:53;1.00;81.40
13707;DHT22;6925;47.816;13.072;2023-01-20T07:02:21;1.00;81.30
13707;DHT22;6925;47.816;13.072;2023-01-20T07:04:50;1.00;81.60
13707;DHT22;6925;47.816;13.072;2023-01-20T07:07:18;1.00;81.60
13707;DHT22;6925;47.816;13.072;2023-01-20T07:09:45;1.00;81.30
13707;DHT22;6925;47.816;13.072;2023-01-20T07:12:13;1.00;81.40
13707;DHT22;6925;47.816;13.072;2023-01-20T07:14:42;1.10;81.60
13707;DHT22;6925;47.816;13.072;2023-01-20T07:17:11;1.10;81.60
13707;DHT22;6925;47.816;13.072;2023-01-20T07:19:38;1.10;81.60
13707;DHT22;6925;47.816;13.072;2023-01-20T07:22:05;1.10;81.90
13707;DHT22;6925;47.816;13.072;2023-01-20T07:24:32;1.00;82.20
13707;DHT22;6925;47.816;13.072;2023-01-20T07:27:00;1.00;82.50
13707;DHT22;6925;47.816;13.072;2023-01-20T07:29:27;1.00;82.70
13707;DHT22;6925;47.816;13.072;2023-01-20T07:31:59;1.10;82.60
13707;DHT22;6925;47.816;13.072;2023-01-20T07:34:26;1.20;82.10
13707;DHT22;6925;47.816;13.072;2023-01-20T07:36:53;1.20;81.70
13707;DHT22;6925;47.816;13.072;2023-01-20T07:39:21;1.30;81.40
13707;DHT22;6925;47.816;13.072;2023-01-20T07:41:48;1.30;81.30
13707;DHT22;6925;47.816;13.072;2023-01-20T07:44:16;1.30;81.30
13707;DHT22;6925;47.816;13.072;2023-01-20T07:46:43;1.30;81.30
13707;DHT22;6925;47.816;13.072;2023-01-20T07:49:12;1.30;81.00
13707;DHT22;6925;47.816;13.072;2023-01-20T07:51:40;1.30;81.00
13707;DHT22;6925;47.816;13.072;2023-01-20T07:54:09;1.30;81.40
13707;DHT22;6925;47.816;13.072;2023-01-20T07:56:37;1.40;82.20
13707;DHT22;6925;47.816;13.072;2023-01-20T07:59:04;1.50;82.00
13707;DHT22;6925;47.816;13.072;2023-01-20T08:01:32;1.50;82.20
13707;DHT22;6925;47.816;13.072;2023-01-20T08:03:59;1.60;81.90
13707;DHT22;6925;47.816;13.072;2023-01-20T08:06:28;1.60;81.90
13707;DHT22;6925;47.816;13.072;2023-01-20T08:08:59;1.50;81.70
13707;DHT22;6925;47.816;13.072;2023-01-20T08:11:27;1.40;81.40
13707;DHT22;6925;47.816;13.072;2023-01-20T08:13:54;1.30;81.80
13707;DHT22;6925;47.816;13.072;2023-01-20T08:16:21;1.30;82.00
13707;DHT22;6925;47.816;13.072;2023-01-20T08:18:51;1.40;82.50
13707;DHT22;6925;47.816;13.072;2023-01-20T08:21:20;1.30;82.30
13707;DHT22;6925;47.816;13.072;2023-01-20T08:23:54;1.30;82.80
13707;DHT22;6925;47.816;13.072;2023-01-20T08:26:26;1.40;82.60
13707;DHT22;6925;47.816;13.072;2023-01-20T08:28:54;1.40;82.30
13707;DHT22;6925;47.816;13.072;2023-01-20T08:31:22;1.50;82.00
13707;DHT22;6925;47.816;13.072;2023-01-20T08:33:52;1.50;82.10
13707;DHT22;6925;47.816;13.072;2023-01-20T08:36:22;1.60;82.20
13707;DHT22;6925;47.816;13.072;2023-01-20T08:38:51;1.70;81.70
13707;DHT22;6925;47.816;13.072;2023-01-20T08:41:20;1.70;81.50
13707;DHT22;6925;47.816;13.072;2023-01-20T08:43:48;1.70;81.40
13707;DHT22;6925;47.816;13.072;2023-01-20T08:46:17;1.70;81.50
13707;DHT22;6925;47.816;13.072;2023-01-20T08:48:45;1.70;81.80
13707;DHT22;6925;47.816;13.072;2023-01-20T08:51:12;1.70;81.60
13707;DHT22;6925;47.816;13.072;2023-01-20T08:53:41;1.70;81.60
13707;DHT22;6925;47.816;13.072;2023-01-20T08:56:10;1.80;82.10
13707;DHT22;6925;47.816;13.072;2023-01-20T08:58:38;1.80;82.20
13707;DHT22;6925;47.816;13.072;2023-01-20T09:01:09;1.70;81.00
13707;DHT22;6925;47.816;13.072;2023-01-20T09:03:37;1.70;81.20
13707;DHT22;6925;47.816;13.072;2023-01-20T09:06:05;1.70;81.60
13707;DHT22;6925;47.816;13.072;2023-01-20T09:08:32;1.80;81.80
13707;DHT22;6925;47.816;13.072;2023-01-20T09:11:03;1.70;81.20
13707;DHT22;6925;47.816;13.072;2023-01-20T09:13:32;1.70;82.00
13707;DHT22;6925;47.816;13.072;2023-01-20T09:15:59;1.70;82.50
13707;DHT22;6925;47.816;13.072;2023-01-20T09:18:26;1.70;82.30
13707;DHT22;6925;47.816;13.072;2023-01-20T09:20:53;1.80;82.60
13707;DHT22;6925;47.816;13.072;2023-01-20T09:23:22;1.90;82.70
13707;DHT22;6925;47.816;13.072;2023-01-20T09:25:50;1.90;82.40
13707;DHT22;6925;47.816;13.072;2023-01-20T09:28:17;1.90;82.10
13707;DHT22;6925;47.816;13.072;2023-01-20T09:30:46;2.00;82.50
13707;DHT22;6925;47.816;13.072;2023-01-20T09:33:13;2.00;82.30
13707;DHT22;6925;47.816;13.072;2023-01-20T09:35:41;2.00;81.80
13707;DHT22;6925;47.816;13.072;2023-01-20T09:38:11;2.00;82.10
13707;DHT22;6925;47.816;13.072;2023-01-20T09:41:02;2.00;82.00
13707;DHT22;6925;47.816;13.072;2023-01-20T09:43:55;2.10;81.90
13707;DHT22;6925;47.816;13.072;2023-01-20T09:46:38;2.10;81.70
13707;DHT22;6925;47.816;13.072;2023-01-20T09:49:17;2.10;81.50
13707;DHT22;6925;47.816;13.072;2023-01-20T09:52:09;2.20;82.00
13707;DHT22;6925;47.816;13.072;2023-01-20T09:54:58;2.20;81.80
13707;DHT22;6925;47.816;13.072;2023-01-20T09:57:30;2.30;81.80
13707;DHT22;6925;47.816;13.072;2023-01-20T10:00:03;2.40;81.20
13707;DHT22;6925;47.816;13.072;2023-01-20T10:02:34;2.40;81.10
13707;DHT22;6925;47.816;13.072;2023-01-20T10:05:10;2.40;81.10
13707;DHT22;6925;47.816;13.072;2023-01-20T10:07:44;2.40;80.90
13707;DHT22;6925;47.816;13.072;2023-01-20T10:10:19;2.40;80.90
13707;DHT22;6925;47.816;13.072;2023-01-20T10:12:52;2.40;81.10
13707;DHT22;6925;47.816;13.072;2023-01-20T10:15:25;2.40;81.10
13707;DHT22;6925;47.816;13.072;2023-01-20T10:17:58;2.30;80.80
13707;DHT22;6925;47.816;13.072;2023-01-20T10:20:30;2.20;80.80
13707;DHT22;6925;47.816;13.072;2023-01-20T10:23:03;2.10;81.00
13707;DHT22;6925;47.816;13.072;2023-01-20T10:25:37;2.20;81.80
13707;DHT22;6925;47.816;13.072;2023-01-20T10:28:10;2.20;81.60
13707;DHT22;6925;47.816;13.072;2023-01-20T10:30:37;2.30;81.80
13707;DHT22;6925;47.816;13.072;2023-01-20T10:33:08;2.30;81.50
13707;DHT22;6925;47.816;13.072;2023-01-20T10:35:38;2.40;81.30
13707;DHT22;6925;47.816;13.072;2023-01-20T10:38:16;2.40;81.00
13707;DHT22;6925;47.816;13.072;2023-01-20T10:40:50;2.50;81.20
13707;DHT22;6925;47.816;13.072;2023-01-20T10:43:22;2.60;81.30
13707;DHT22;6925;47.816;13.072;2023-01-20T10:45:57;2.60;81.10
13707;DHT22;6925;47.816;13.072;2023-01-20T10:51:35;2.70;80.90
13707;DHT22;6925;47.816;13.072;2023-01-20T10:54:13;2.70;80.90
13707;DHT22;6925;47.816;13.072;2023-01-20T10:56:48;2.80;81.00
13707;DHT22;6925;47.816;13.072;2023-01-20T10:59:26;2.90;81.20
13707;DHT22;6925;47.816;13.072;2023-01-20T11:01:57;2.90;80.70
13707;DHT22;6925;47.816;13.072;2023-01-20T11:04:26;2.90;80.50
13707;DHT22;6925;47.816;13.072;2023-01-20T11:06:55;3.00;80.20
13707;DHT22;6925;47.816;13.072;2023-01-20T11:09:30;2.90;79.40
13707;DHT22;6925;47.816;13.072;2023-01-20T11:12:00;2.90;79.80
13707;DHT22;6925;47.816;13.072;2023-01-20T11:14:28;2.90;80.00
13707;DHT22;6925;47.816;13.072;2023-01-20T11:17:01;2.80;79.70
13707;DHT22;6925;47.816;13.072;2023-01-20T11:19:44;2.70;79.60
13707;DHT22;6925;47.816;13.072;2023-01-20T11:22:14;2.60;80.60
13707;DHT22;6925;47.816;13.072;2023-01-20T11:24:46;2.70;80.90
13707;DHT22;6925;47.816;13.072;2023-01-20T11:27:20;2.70;79.70
13707;DHT22;6925;47.816;13.072;2023-01-20T11:29:50;2.50;79.60
13707;DHT22;6925;47.816;13.072;2023-01-20T11:32:36;2.50;80.40
13707;DHT22;6925;47.816;13.072;2023-01-20T11:35:19;2.40;80.00
13707;DHT22;6925;47.816;13.072;2023-01-20T11:37:48;2.40;80.70
13707;DHT22;6925;47.816;13.072;2023-01-20T11:40:21;2.40;81.10
13707;DHT22;6925;47.816;13.072;2023-01-20T11:42:50;2.40;80.70
13707;DHT22;6925;47.816;13.072;2023-01-20T11:45:29;2.40;81.30
13707;DHT22;6925;47.816;13.072;2023-01-20T11:48:16;2.50;81.70
13707;DHT22;6925;47.816;13.072;2023-01-20T11:50:47;2.70;81.40
13707;DHT22;6925;47.816;13.072;2023-01-20T11:53:22;2.70;81.00
13707;DHT22;6925;47.816;13.072;2023-01-20T11:55:54;2.70;80.80
13707;DHT22;6925;47.816;13.072;2023-01-20T12:01:49;2.80;81.50
13707;DHT22;6925;47.816;13.072;2023-01-20T12:07:10;2.90;80.40
13707;DHT22;6925;47.816;13.072;2023-01-20T12:09:42;3.00;80.00
13707;DHT22;6925;47.816;13.072;2023-01-20T12:12:16;3.00;79.30
13707;DHT22;6925;47.816;13.072;2023-01-20T12:17:20;2.90;79.80
13707;DHT22;6925;47.816;13.072;2023-01-20T12:19:58;3.00;79.80
13707;DHT22;6925;47.816;13.072;2023-01-20T12:22:34;3.00;80.00
13707;DHT22;6925;47.816;13.072;2023-01-20T12:25:16;3.00;79.50
13707;DHT22;6925;47.816;13.072;2023-01-20T12:27:48;3.00;79.40
13707;DHT22;6925;47.816;13.072;2023-01-20T12:33:14;3.10;80.00
13707;DHT22;6925;47.816;13.072;2023-01-20T12:35:52;3.10;79.60
13707;DHT22;6925;47.816;13.072;2023-01-20T12:38:23;3.00;79.90
13707;DHT22;6925;47.816;13.072;2023-01-20T12:40:54;3.00;80.20
13707;DHT22;6925;47.816;13.072;2023-01-20T12:43:36;3.00;80.10
13707;DHT22;6925;47.816;13.072;2023-01-20T12:46:29;3.10;79.60
13707;DHT22;6925;47.816;13.072;2023-01-20T12:49:20;3.10;79.30
13707;DHT22;6925;47.816;13.072;2023-01-20T12:52:00;3.10;79.60
13707;DHT22;6925;47.816;13.072;2023-01-20T12:54:52;3.10;79.70
13707;DHT22;6925;47.816;13.072;2023-01-20T12:57:35;3.00;80.00
13707;DHT22;6925;47.816;13.072;2023-01-20T13:00:23;3.00;80.20
13707;DHT22;6925;47.816;13.072;2023-01-20T13:03:23;2.80;80.80
13707;DHT22;6925;47.816;13.072;2023-01-20T13:06:21;2.80;81.20
13707;DHT22;6925;47.816;13.072;2023-01-20T13:08:58;2.80;81.30
13707;DHT22;6925;47.816;13.072;2023-01-20T13:11:43;2.80;81.20
13707;DHT22;6925;47.816;13.072;2023-01-20T13:14:16;2.90;81.00
13707;DHT22;6925;47.816;13.072;2023-01-20T13:17:26;3.00;80.90
13707;DHT22;6925;47.816;13.072;2023-01-20T13:19:58;3.00;80.60
13707;DHT22;6925;47.816;13.072;2023-01-20T13:22:27;3.00;81.20
13707;DHT22;6925;47.816;13.072;2023-01-20T13:24:57;3.00;81.00
13707;DHT22;6925;47.816;13.072;2023-01-20T13:27:26;3.00;80.50
13707;DHT22;6925;47.816;13.072;2023-01-20T13:29:57;3.00;80.80
13707;DHT22;6925;47.816;13.072;2023-01-20T13:32:35;3.00;80.70
13707;DHT22;6925;47.816;13.072;2023-01-20T13:35:40;3.10;80.90
13707;DHT22;6925;47.816;13.072;2023-01-20T13:38:20;3.10;80.90
13707;DHT22;6925;47.816;13.072;2023-01-20T13:40:53;3.10;81.40
13707;DHT22;6925;47.816;13.072;2023-01-20T13:43:48;3.00;80.60
13707;DHT22;6925;47.816;13.072;2023-01-20T13:49:27;2.90;81.40
13707;DHT22;6925;47.816;13.072;2023-01-20T13:51:55;2.90;81.50
13707;DHT22;6925;47.816;13.072;2023-01-20T13:54:49;3.00;81.60
13707;DHT22;6925;47.816;13.072;2023-01-20T13:57:43;3.10;81.90
13707;DHT22;6925;47.816;13.072;2023-01-20T14:00:17;3.10;81.20
13707;DHT22;6925;47.816;13.072;2023-01-20T14:02:48;3.10;81.10
13707;DHT22;6925;47.816;13.072;2023-01-20T14:05:29;3.20;81.30
13707;DHT22;6925;47.816;13.072;2023-01-20T14:07:57;3.20;81.80
13707;DHT22;6925;47.816;13.072;2023-01-20T14:10:25;3.20;81.50
13707;DHT22;6925;47.816;13.072;2023-01-20T14:12:53;3.20;81.40
13707;DHT22;6925;47.816;13.072;2023-01-20T14:15:33;3.10;80.90
13707;DHT22;6925;47.816;13.072;2023-01-20T14:18:01;3.10;81.50
13707;DHT22;6925;47.816;13.072;2023-01-20T14:20:30;3.10;81.80
13707;DHT22;6925;47.816;13.072;2023-01-20T14:23:24;3.10;81.30
13707;DHT22;6925;47.816;13.072;2023-01-20T14:26:09;3.10;81.40
13707;DHT22;6925;47.816;13.072;2023-01-20T14:28:45;3.10;80.70
13707;DHT22;6925;47.816;13.072;2023-01-20T14:31:18;3.00;81.40
13707;DHT22;6925;47.816;13.072;2023-01-20T14:33:49;3.00;81.40
13707;DHT22;6925;47.816;13.072;2023-01-20T14:36:21;2.90;81.30
13707;DHT22;6925;47.816;13.072;2023-01-20T14:38:53;2.80;81.50
13707;DHT22;6925;47.816;13.072;2023-01-20T14:41:45;2.80;81.30
13707;DHT22;6925;47.816;13.072;2023-01-20T14:44:17;2.70;80.90
13707;DHT22;6925;47.816;13.072;2023-01-20T14:46:47;2.60;80.80
13707;DHT22;6925;47.816;13.072;2023-01-20T14:49:17;2.60;81.40
13707;DHT22;6925;47.816;13.072;2023-01-20T14:51:49;2.50;81.40
13707;DHT22;6925;47.816;13.072;2023-01-20T14:57:40;2.70;82.20
13707;DHT22;6925;47.816;13.072;2023-01-20T15:00:18;2.80;81.70
13707;DHT22;6925;47.816;13.072;2023-01-20T15:02:49;2.80;81.40
13707;DHT22;6925;47.816;13.072;2023-01-20T15:05:22;2.80;81.40
13707;DHT22;6925;47.816;13.072;2023-01-20T15:13:32;2.90;81.80
13707;DHT22;6925;47.816;13.072;2023-01-20T15:16:06;2.90;80.50
13707;DHT22;6925;47.816;13.072;2023-01-20T15:18:49;2.80;80.80
13707;DHT22;6925;47.816;13.072;2023-01-20T15:21:34;2.70;80.60
13707;DHT22;6925;47.816;13.072;2023-01-20T15:24:11;2.70;80.80
13707;DHT22;6925;47.816;13.072;2023-01-20T15:26:39;2.70;81.50
13707;DHT22;6925;47.816;13.072;2023-01-20T15:29:18;2.70;81.70
13707;DHT22;6925;47.816;13.072;2023-01-20T15:31:47;2.70;81.10
13707;DHT22;6925;47.816;13.072;2023-01-20T15:34:14;2.70;81.10
13707;DHT22;6925;47.816;13.072;2023-01-20T15:36:49;2.70;81.00
13707;DHT22;6925;47.816;13.072;2023-01-20T15:39:21;2.70;81.00
13707;DHT22;6925;47.816;13.072;2023-01-20T15:41:48;2.70;81.40
13707;DHT22;6925;47.816;13.072;2023-01-20T15:44:19;2.70;81.30
13707;DHT22;6925;47.816;13.072;2023-01-20T15:46:50;2.70;81.60
13707;DHT22;6925;47.816;13.072;2023-01-20T15:49:22;2.70;81.80
13707;DHT22;6925;47.816;13.072;2023-01-20T15:51:51;2.70;80.90
13707;DHT22;6925;47.816;13.072;2023-01-20T15:54:19;2.60;80.70
13707;DHT22;6925;47.816;13.072;2023-01-20T15:56:47;2.60;80.80
13707;DHT22;6925;47.816;13.072;2023-01-20T15:59:16;2.50;81.30
13707;DHT22;6925;47.816;13.072;2023-01-20T16:04:35;2.60;82.00
13707;DHT22;6925;47.816;13.072;2023-01-20T16:07:02;2.60;81.70
13707;DHT22;6925;47.816;13.072;2023-01-20T16:09:31;2.60;81.80
13707;DHT22;6925;47.816;13.072;2023-01-20T16:12:39;2.60;81.20
13707;DHT22;6925;47.816;13.072;2023-01-20T16:15:08;2.60;81.80
13707;DHT22;6925;47.816;13.072;2023-01-20T16:20:57;2.60;81.90
13707;DHT22;6925;47.816;13.072;2023-01-20T16:23:25;2.70;81.50
13707;DHT22;6925;47.816;13.072;2023-01-20T16:25:53;2.60;81.10
13707;DHT22;6925;47.816;13.072;2023-01-20T16:28:21;2.60;81.40
13707;DHT22;6925;47.816;13.072;2023-01-20T16:30:49;2.60;81.50
13707;DHT22;6925;47.816;13.072;2023-01-20T16:33:20;2.60;81.80
13707;DHT22;6925;47.816;13.072;2023-01-20T16:35:49;2.60;82.00
13707;DHT22;6925;47.816;13.072;2023-01-20T16:38:19;2.60;81.90
13707;DHT22;6925;47.816;13.072;2023-01-20T16:40:49;2.60;81.90
13707;DHT22;6925;47.816;13.072;2023-01-20T16:43:19;2.60;81.80
13707;DHT22;6925;47.816;13.072;2023-01-20T16:45:49;2.60;81.70
13707;DHT22;6925;47.816;13.072;2023-01-20T16:48:19;2.60;82.00
13707;DHT22;6925;47.816;13.072;2023-01-20T16:50:47;2.60;82.20